Time;durP1;ratioP1;P1;durP2;ratioP2;P2;SDS_P1;SDS_P2;PMS_P1;PMS_P2;Temp;Humidity;BMP_temperature;BMP_pressure;BME280_temperature;BME280_humidity;BME280_pressure;Samples;Min_cycle;Max_cycle;Signal;HPM_P1;HPM_P2
2022/04/11 00:00:25;;;;;;;6.67;5.97;;;6.80;91.30;;;;;;5031982;28;20272;-66
2022/04/11 00:02:51;;;;;;;9.00;6.10;;;6.70;91.30;;;;;;5039718;28;20177;-65
2022/04/11 00:05:16;;;;;;;6.17;5.67;;;6.40;91.30;;;;;;5052436;28;20495;-66
2022/04/11 00:07:42;;;;;;;6.10;5.50;;;6.70;91.30;;;;;;5053426;28;20502;-66
2022/04/11 00:10:08;;;;;;;5.83;5.33;;;6.70;91.50;;;;;;5051568;28;20190;-66
2022/04/11 00:12:34;;;;;;;6.13;5.57;;;6.70;91.50;;;;;;5052863;28;20190;-66
2022/04/11 00:15:00;;;;;;;6.80;5.60;;;6.40;91.40;;;;;;5052041;28;20893;-66
2022/04/11 00:17:26;;;;;;;6.00;5.50;;;6.60;91.70;;;;;;5052906;28;20183;-65
2022/04/11 00:19:52;;;;;;;6.57;6.00;;;6.60;91.60;;;;;;5052732;28;20416;-66
2022/04/11 00:22:17;;;;;;;6.10;5.60;;;6.00;91.50;;;;;;5052010;28;20198;-65
2022/04/11 00:24:43;;;;;;;8.23;5.73;;;6.00;91.50;;;;;;5052684;28;20214;-65
2022/04/11 00:27:10;;;;;;;5.43;5.03;;;6.10;91.80;;;;;;5050758;28;20199;-66
2022/04/11 00:29:36;;;;;;;6.13;5.47;;;6.40;92.00;;;;;;5050599;28;20440;-65
2022/04/11 00:32:01;;;;;;;6.07;5.47;;;6.00;91.70;;;;;;5051922;28;20266;-66
2022/04/11 00:34:27;;;;;;;6.33;5.73;;;6.50;92.30;;;;;;5052307;28;20216;-65
2022/04/11 00:36:53;;;;;;;6.87;5.40;;;6.00;92.00;;;;;;5052731;28;20276;-65
2022/04/11 00:39:18;;;;;;;6.53;5.70;;;6.40;92.50;;;;;;5051701;28;20171;-65
2022/04/11 00:41:44;;;;;;;7.47;5.97;;;6.50;92.70;;;;;;5052976;28;20188;-66
2022/04/11 00:44:10;;;;;;;6.00;5.50;;;6.40;92.60;;;;;;5051500;28;20211;-68
2022/04/11 00:46:36;;;;;;;5.97;5.37;;;6.00;92.20;;;;;;5052348;28;20184;-66
2022/04/11 00:49:01;;;;;;;5.63;5.33;;;6.40;92.40;;;;;;5052181;28;20501;-66
2022/04/11 00:51:27;;;;;;;5.87;5.37;;;6.50;92.80;;;;;;5037183;28;20190;-65
2022/04/11 00:53:56;;;;;;;5.70;5.20;;;6.40;93.00;;;;;;5032842;28;20178;-66
2022/04/11 00:56:26;;;;;;;6.07;5.50;;;6.40;93.00;;;;;;5032973;28;20413;-65
2022/04/11 00:58:51;;;;;;;6.60;5.93;;;6.30;93.00;;;;;;5032748;28;20398;-65
2022/04/11 01:01:17;;;;;;;6.20;5.63;;;6.30;93.10;;;;;;5050231;28;20509;-65
2022/04/11 01:03:43;;;;;;;5.83;5.43;;;5.90;92.90;;;;;;5052079;28;20179;-65
2022/04/11 01:06:09;;;;;;;5.70;5.30;;;6.30;93.30;;;;;;5051334;28;20175;-66
2022/04/11 01:08:36;;;;;;;6.87;6.17;;;6.40;93.50;;;;;;5051905;28;20193;-66
2022/04/11 01:11:03;;;;;;;5.80;5.35;;;6.30;93.40;;;;;;5051968;28;20175;-65
2022/04/11 01:13:29;;;;;;;6.40;5.80;;;6.30;93.80;;;;;;5052459;28;20270;-66
2022/04/11 01:15:57;;;;;;;6.83;6.23;;;6.00;93.20;;;;;;5052175;28;20543;-65
2022/04/11 01:18:23;;;;;;;6.65;6.00;;;6.50;93.30;;;;;;5052429;28;20405;-66
2022/04/11 01:20:49;;;;;;;8.63;7.03;;;6.20;93.20;;;;;;5052558;28;20256;-66
2022/04/11 01:23:15;;;;;;;6.23;5.57;;;6.20;93.20;;;;;;5050630;28;20456;-65
2022/04/11 01:25:42;;;;;;;7.50;6.57;;;5.80;93.40;;;;;;5052430;28;20790;-65
2022/04/11 01:28:09;;;;;;;9.10;5.67;;;6.20;93.70;;;;;;5051738;28;20417;-66
2022/04/11 01:30:34;;;;;;;7.22;6.53;;;6.20;93.70;;;;;;5052364;28;20405;-65
2022/04/11 01:33:00;;;;;;;8.13;5.93;;;5.90;93.60;;;;;;5041731;28;20186;-73
2022/04/11 01:35:27;;;;;;;8.20;5.47;;;5.90;93.90;;;;;;5031562;28;20258;-65
2022/04/11 01:37:54;;;;;;;7.05;6.40;;;5.90;93.70;;;;;;5030573;28;20179;-65
2022/04/11 01:40:20;;;;;;;7.30;6.50;;;6.30;94.00;;;;;;5030806;28;20174;-65
2022/04/11 01:42:46;;;;;;;6.97;6.28;;;6.20;94.00;;;;;;5035161;28;20481;-65
2022/04/11 01:45:13;;;;;;;6.93;6.27;;;6.20;94.20;;;;;;5034980;28;20244;-65
2022/04/11 01:47:42;;;;;;;6.97;6.38;;;6.30;94.20;;;;;;5035530;28;20925;-66
2022/04/11 01:50:09;;;;;;;6.90;6.20;;;6.20;94.10;;;;;;5045309;28;20247;-65
2022/04/11 01:52:34;;;;;;;6.93;6.33;;;6.30;94.20;;;;;;5055772;28;20174;-65
2022/04/11 01:55:02;;;;;;;6.70;6.10;;;6.20;94.20;;;;;;5042858;28;20436;-73
2022/04/11 01:57:28;;;;;;;6.55;5.95;;;6.10;94.20;;;;;;5035544;28;20412;-65
2022/04/11 01:59:53;;;;;;;7.43;6.65;;;6.50;94.40;;;;;;5035369;28;20252;-65
2022/04/11 02:02:19;;;;;;;6.80;6.10;;;6.00;93.80;;;;;;5034381;28;20651;-66
2022/04/11 02:04:45;;;;;;;7.20;6.60;;;6.20;93.90;;;;;;5035740;28;20210;-65
2022/04/11 02:07:11;;;;;;;6.97;6.37;;;6.40;94.20;;;;;;5033408;28;20458;-66
2022/04/11 02:09:36;;;;;;;8.10;6.97;;;6.30;94.30;;;;;;5034116;28;20203;-66
2022/04/11 02:12:02;;;;;;;7.33;6.63;;;6.30;94.40;;;;;;5033653;28;20209;-73
2022/04/11 02:14:28;;;;;;;7.43;6.70;;;6.40;94.50;;;;;;5032278;28;20196;-65
2022/04/11 02:16:54;;;;;;;7.97;6.87;;;6.30;94.60;;;;;;5055234;28;20390;-66
2022/04/11 02:19:19;;;;;;;7.67;6.50;;;5.90;94.60;;;;;;5053153;28;20174;-65
2022/04/11 02:21:45;;;;;;;8.20;7.10;;;6.20;95.00;;;;;;5054968;28;20225;-65
2022/04/11 02:24:11;;;;;;;7.37;6.70;;;6.20;94.90;;;;;;5053109;28;20210;-66
2022/04/11 02:26:36;;;;;;;9.83;7.30;;;6.30;95.00;;;;;;5055242;28;20323;-66
2022/04/11 02:29:02;;;;;;;7.87;7.07;;;6.20;94.80;;;;;;5054240;28;20185;-74
2022/04/11 02:31:28;;;;;;;10.40;7.40;;;5.90;94.60;;;;;;5054400;28;20167;-66
2022/04/11 02:33:54;;;;;;;8.37;7.50;;;6.30;94.90;;;;;;5054776;28;20627;-66
2022/04/11 02:36:19;;;;;;;9.83;8.23;;;6.10;94.80;;;;;;5054102;28;20645;-66
2022/04/11 02:38:45;;;;;;;8.77;7.87;;;5.80;94.80;;;;;;5052651;28;20316;-66
2022/04/11 02:41:11;;;;;;;9.70;8.80;;;6.00;94.80;;;;;;5053897;28;20183;-66
2022/04/11 02:43:36;;;;;;;9.67;8.67;;;6.20;94.80;;;;;;5038316;28;20261;-66
2022/04/11 02:46:02;;;;;;;8.73;7.93;;;6.10;94.90;;;;;;5041823;28;20296;-73
2022/04/11 02:48:28;;;;;;;8.87;7.97;;;6.10;95.00;;;;;;5052919;28;20177;-66
2022/04/11 02:50:53;;;;;;;9.23;7.73;;;6.00;95.10;;;;;;5053982;28;20205;-65
2022/04/11 02:53:19;;;;;;;9.17;8.37;;;5.60;95.20;;;;;;5053647;28;20509;-66
2022/04/11 02:55:45;;;;;;;9.13;8.00;;;6.20;95.60;;;;;;5054312;28;20222;-66
2022/04/11 02:58:10;;;;;;;9.40;8.47;;;6.30;95.60;;;;;;5028475;28;20656;-65
2022/04/11 03:00:36;;;;;;;9.23;8.33;;;6.20;95.40;;;;;;5053288;28;20185;-66
2022/04/11 03:03:02;;;;;;;8.70;7.87;;;5.80;95.20;;;;;;5054261;28;20191;-65
2022/04/11 03:05:28;;;;;;;8.40;7.40;;;6.10;95.60;;;;;;5053236;28;20254;-65
2022/04/11 03:07:53;;;;;;;11.30;8.70;;;6.10;95.70;;;;;;5054191;28;20641;-65
2022/04/11 03:10:19;;;;;;;10.60;8.13;;;6.10;95.70;;;;;;5052968;28;20190;-66
2022/04/11 03:12:45;;;;;;;8.50;7.70;;;6.10;95.80;;;;;;5053538;28;20208;-66
2022/04/11 03:15:10;;;;;;;9.20;8.40;;;6.00;95.80;;;;;;5051937;28;20189;-66
2022/04/11 03:17:36;;;;;;;14.30;8.40;;;5.70;95.90;;;;;;5050962;28;20224;-66
2022/04/11 03:20:03;;;;;;;8.70;8.00;;;6.30;96.50;;;;;;5032129;28;20183;-66
2022/04/11 03:22:29;;;;;;;9.88;7.60;;;6.20;96.40;;;;;;5045330;28;20202;-67
2022/04/11 03:24:55;;;;;;;8.80;7.78;;;5.60;96.10;;;;;;5050049;28;20198;-66
2022/04/11 03:27:20;;;;;;;10.57;7.37;;;6.00;96.20;;;;;;5050413;28;20180;-66
2022/04/11 03:29:46;;;;;;;7.57;6.87;;;5.90;96.00;;;;;;5049020;28;20613;-65
2022/04/11 03:32:12;;;;;;;9.33;7.50;;;6.10;96.20;;;;;;5050391;28;20186;-66
2022/04/11 03:34:38;;;;;;;7.60;6.90;;;6.20;96.40;;;;;;5053948;28;20187;-65
2022/04/11 03:37:04;;;;;;;7.05;6.43;;;6.30;96.50;;;;;;5053745;28;20255;-65
2022/04/11 03:39:30;;;;;;;7.82;7.00;;;6.10;96.60;;;;;;5052574;28;20178;-66
2022/04/11 03:41:55;;;;;;;7.00;6.30;;;6.30;96.80;;;;;;5053097;28;20170;-66
2022/04/11 03:44:21;;;;;;;7.43;6.83;;;6.20;96.90;;;;;;5052678;28;20218;-66
2022/04/11 03:46:47;;;;;;;7.80;7.20;;;6.10;96.90;;;;;;5033987;28;20183;-65
2022/04/11 03:49:12;;;;;;;9.37;8.53;;;6.10;96.80;;;;;;5042001;28;20209;-65
2022/04/11 03:51:38;;;;;;;8.00;7.20;;;6.10;96.70;;;;;;5053315;28;20180;-65
2022/04/11 03:54:04;;;;;;;8.13;7.43;;;6.20;96.70;;;;;;5053280;28;20272;-65
2022/04/11 03:56:30;;;;;;;8.83;8.10;;;6.20;96.70;;;;;;5052840;28;20277;-65
2022/04/11 03:58:55;;;;;;;8.63;7.83;;;6.20;96.60;;;;;;5051975;28;20898;-65
2022/04/11 04:01:21;;;;;;;7.20;6.50;;;6.20;96.60;;;;;;5043445;28;20183;-65
2022/04/11 04:03:47;;;;;;;10.10;7.77;;;6.20;96.70;;;;;;5032492;28;20266;-65
2022/04/11 04:06:13;;;;;;;8.40;7.30;;;6.00;96.70;;;;;;5032214;28;20219;-65
2022/04/11 04:08:38;;;;;;;8.30;7.07;;;5.90;96.60;;;;;;5033285;28;20176;-65
2022/04/11 04:11:04;;;;;;;7.90;7.20;;;6.20;96.70;;;;;;5033314;28;20274;-65
2022/04/11 04:13:30;;;;;;;8.20;7.50;;;5.70;96.60;;;;;;5030641;28;20689;-64
2022/04/11 04:15:55;;;;;;;8.93;8.13;;;5.60;96.40;;;;;;5032740;28;20182;-64
2022/04/11 04:18:22;;;;;;;7.30;6.63;;;6.10;96.50;;;;;;5030714;28;20187;-64
2022/04/11 04:20:47;;;;;;;7.88;7.18;;;6.00;96.40;;;;;;5033392;28;20222;-65
2022/04/11 04:23:13;;;;;;;8.80;8.00;;;6.20;96.90;;;;;;5032213;28;20229;-65
2022/04/11 04:25:39;;;;;;;9.87;9.00;;;6.10;96.60;;;;;;5039458;28;20194;-64
2022/04/11 04:28:05;;;;;;;10.60;7.50;;;5.60;96.30;;;;;;5052787;28;20467;-65
2022/04/11 04:30:30;;;;;;;8.50;7.80;;;5.90;96.50;;;;;;5051992;28;20185;-66
2022/04/11 04:33:00;;;;;;;8.47;7.63;;;5.50;96.30;;;;;;5050192;28;20178;-66
2022/04/11 04:35:27;;;;;;;9.65;8.48;;;6.10;96.80;;;;;;5042566;28;20224;-66
2022/04/11 04:37:53;;;;;;;8.55;7.78;;;5.80;96.80;;;;;;5052504;28;20182;-66
2022/04/11 04:40:19;;;;;;;9.05;8.20;;;5.30;96.80;;;;;;5052240;28;20240;-66
2022/04/11 04:42:45;;;;;;;8.32;7.55;;;5.70;97.20;;;;;;5052387;28;20194;-64
2022/04/11 04:45:12;;;;;;;9.07;8.27;;;5.40;97.20;;;;;;5049827;28;20198;-65
2022/04/11 04:47:38;;;;;;;7.75;7.15;;;5.30;97.20;;;;;;5052357;28;20594;-65
2022/04/11 04:50:05;;;;;;;9.30;8.40;;;5.60;97.60;;;;;;5052542;28;20256;-65
2022/04/11 04:52:30;;;;;;;9.82;7.88;;;5.50;97.60;;;;;;5052035;28;20522;-64
2022/04/11 04:54:56;;;;;;;8.53;7.70;;;5.60;97.60;;;;;;5052619;28;20257;-64
2022/04/11 04:57:22;;;;;;;8.33;7.63;;;5.50;97.70;;;;;;5052065;28;20181;-65
2022/04/11 04:59:48;;;;;;;9.23;8.32;;;5.00;97.40;;;;;;5052803;28;20177;-64
2022/04/11 05:02:13;;;;;;;9.90;8.60;;;5.10;97.60;;;;;;5052185;28;20189;-64
2022/04/11 05:04:39;;;;;;;8.57;7.87;;;5.70;98.10;;;;;;5052554;28;20525;-64
2022/04/11 05:07:05;;;;;;;9.27;8.37;;;5.40;98.10;;;;;;5052690;28;20178;-64
2022/04/11 05:09:31;;;;;;;8.70;7.60;;;5.40;98.30;;;;;;5049837;28;20178;-64
2022/04/11 05:11:56;;;;;;;9.33;7.80;;;5.10;98.10;;;;;;5051843;28;20395;-64
2022/04/11 05:14:22;;;;;;;10.60;9.50;;;5.50;98.40;;;;;;5050587;28;20469;-68
2022/04/11 05:16:48;;;;;;;11.33;10.30;;;5.80;99.90;;;;;;5051761;28;20490;-68
2022/04/11 05:19:14;;;;;;;11.20;8.97;;;6.60;99.90;;;;;;5051584;28;20266;-68
2022/04/11 05:21:39;;;;;;;10.90;9.80;;;7.30;99.90;;;;;;5050810;28;20990;-68
2022/04/11 05:24:06;;;;;;;9.53;8.67;;;8.00;99.90;;;;;;5051719;28;20213;-68
2022/04/11 05:26:31;;;;;;;9.93;8.87;;;8.50;99.90;;;;;;5050579;28;20440;-68
2022/04/11 05:28:57;;;;;;;9.93;9.00;;;9.10;99.90;;;;;;5051877;28;20395;-64
2022/04/11 05:31:23;;;;;;;11.27;10.00;;;9.50;97.80;;;;;;5051583;28;20216;-65
2022/04/11 05:33:48;;;;;;;9.83;8.73;;;9.70;92.20;;;;;;5051911;28;20170;-65
2022/04/11 05:36:14;;;;;;;10.70;7.60;;;9.50;89.90;;;;;;5051449;28;20522;-72
2022/04/11 05:38:40;;;;;;;11.20;7.93;;;9.20;87.60;;;;;;5049952;28;20222;-65
2022/04/11 05:41:06;;;;;;;9.90;8.87;;;8.80;87.60;;;;;;5051745;28;20428;-66
2022/04/11 05:43:32;;;;;;;11.67;9.33;;;8.60;88.60;;;;;;5050874;28;20499;-65
2022/04/11 05:45:59;;;;;;;9.70;8.80;;;8.30;90.00;;;;;;5051815;28;20551;-65
2022/04/11 05:48:25;;;;;;;12.13;9.70;;;8.00;90.70;;;;;;5051015;28;20267;-65
2022/04/11 05:50:51;;;;;;;10.70;9.80;;;7.80;91.30;;;;;;5050311;28;20943;-65
2022/04/11 05:53:18;;;;;;;9.20;8.50;;;7.60;91.80;;;;;;5051753;28;20193;-64
2022/04/11 05:55:44;;;;;;;8.73;8.03;;;7.10;92.00;;;;;;5052187;28;20414;-65
2022/04/11 05:58:10;;;;;;;9.00;7.53;;;6.80;92.60;;;;;;5052349;28;20421;-65
2022/04/11 06:00:36;;;;;;;9.20;7.90;;;7.10;93.30;;;;;;5050542;28;20413;-65
2022/04/11 06:03:01;;;;;;;7.80;7.10;;;7.10;93.80;;;;;;5051734;28;20442;-65
2022/04/11 06:05:27;;;;;;;9.17;8.20;;;6.90;94.00;;;;;;5051357;28;20290;-65
2022/04/11 06:07:53;;;;;;;9.57;8.67;;;6.90;94.80;;;;;;5052237;28;20182;-65
2022/04/11 06:10:18;;;;;;;10.40;9.30;;;6.90;95.10;;;;;;5051306;28;20172;-65
2022/04/11 06:12:44;;;;;;;10.53;9.37;;;6.80;95.50;;;;;;5051708;28;20218;-65
2022/04/11 06:15:11;;;;;;;10.73;9.70;;;6.80;96.00;;;;;;5050834;28;20172;-65
2022/04/11 06:17:37;;;;;;;10.53;9.50;;;6.90;96.60;;;;;;5051383;28;20178;-65
2022/04/11 06:20:03;;;;;;;9.93;9.03;;;6.80;96.90;;;;;;5051650;28;20455;-65
2022/04/11 06:22:29;;;;;;;10.60;9.70;;;6.90;97.10;;;;;;5051306;28;20446;-65
2022/04/11 06:25:03;;;;;;;11.27;10.10;;;6.80;97.30;;;;;;5051778;28;20459;-65
2022/04/11 06:27:28;;;;;;;10.50;8.43;;;6.50;97.20;;;;;;5052188;28;20201;-65
2022/04/11 06:29:57;;;;;;;9.47;8.53;;;7.00;96.20;;;;;;5055377;28;20419;-65
2022/04/11 06:32:31;;;;;;;8.60;7.83;;;6.80;95.60;;;;;;5054742;28;20184;-65
2022/04/11 06:34:57;;;;;;;8.93;7.97;;;6.70;95.80;;;;;;5055246;28;20421;-65
2022/04/11 06:37:26;;;;;;;9.00;8.10;;;6.90;95.10;;;;;;5054568;28;20497;-65
2022/04/11 06:39:53;;;;;;;8.70;7.90;;;6.70;94.70;;;;;;5054779;28;20410;-65
2022/04/11 06:42:19;;;;;;;11.17;9.23;;;6.80;94.90;;;;;;5054103;28;20415;-65
2022/04/11 06:44:45;;;;;;;11.17;10.07;;;7.10;95.20;;;;;;5055082;28;20494;-65
2022/04/11 06:47:11;;;;;;;13.70;11.43;;;6.70;95.00;;;;;;5055180;28;20460;-65
2022/04/11 06:49:37;;;;;;;11.23;10.33;;;7.20;95.20;;;;;;5054133;28;20389;-65
2022/04/11 06:52:03;;;;;;;10.93;9.83;;;7.40;95.20;;;;;;5055249;28;20415;-65
2022/04/11 06:54:30;;;;;;;10.83;9.83;;;7.40;95.50;;;;;;5054566;28;20760;-65
2022/04/11 06:56:56;;;;;;;14.40;9.67;;;7.10;95.00;;;;;;5037020;28;20426;-65
2022/04/11 06:59:22;;;;;;;11.13;10.13;;;7.90;95.20;;;;;;5052865;28;20423;-65
2022/04/11 07:01:48;;;;;;;12.00;9.77;;;7.70;94.00;;;;;;5054780;28;20408;-65
2022/04/11 07:04:14;;;;;;;11.30;9.10;;;8.00;93.70;;;;;;5054618;28;20554;-65
2022/04/11 07:06:39;;;;;;;10.07;9.20;;;8.00;94.00;;;;;;5054078;28;20185;-65
2022/04/11 07:09:05;;;;;;;8.40;7.50;;;8.10;93.40;;;;;;5054586;28;20178;-65
2022/04/11 07:11:31;;;;;;;9.63;8.73;;;8.00;93.10;;;;;;5054152;28;20181;-65
2022/04/11 07:13:57;;;;;;;9.67;8.60;;;8.40;92.20;;;;;;5053258;28;20185;-65
2022/04/11 07:16:24;;;;;;;10.10;9.10;;;8.50;92.50;;;;;;5052696;28;20178;-65
2022/04/11 07:18:50;;;;;;;11.23;10.00;;;8.60;92.20;;;;;;5054470;28;20408;-65
2022/04/11 07:21:17;;;;;;;12.53;9.30;;;8.70;91.90;;;;;;5054397;28;20878;-65
2022/04/11 07:23:43;;;;;;;10.57;9.67;;;8.80;91.90;;;;;;5054350;28;20448;-65
2022/04/11 07:26:09;;;;;;;9.80;9.00;;;8.90;92.20;;;;;;5054289;28;20783;-65
2022/04/11 07:28:35;;;;;;;11.10;8.70;;;9.00;92.50;;;;;;5053563;28;20477;-65
2022/04/11 07:31:00;;;;;;;9.70;8.00;;;9.10;92.40;;;;;;5054240;28;20253;-65
2022/04/11 07:33:26;;;;;;;7.90;7.10;;;9.20;92.70;;;;;;5053638;28;20522;-65
2022/04/11 07:35:52;;;;;;;10.60;7.07;;;9.40;92.80;;;;;;5053151;28;20186;-65
2022/04/11 07:38:18;;;;;;;6.97;6.37;;;9.50;92.50;;;;;;5053633;28;20177;-65
2022/04/11 07:40:44;;;;;;;6.97;6.33;;;9.70;91.90;;;;;;5036019;28;20184;-65
2022/04/11 07:43:10;;;;;;;7.43;6.73;;;9.70;91.50;;;;;;5053982;28;20426;-65
2022/04/11 07:45:36;;;;;;;8.70;6.80;;;9.90;91.80;;;;;;5052512;28;20458;-65
2022/04/11 07:48:01;;;;;;;6.33;5.83;;;10.00;90.70;;;;;;5052431;28;20184;-65
2022/04/11 07:50:27;;;;;;;7.27;6.17;;;10.10;90.50;;;;;;5053057;28;20645;-65
2022/04/11 07:52:53;;;;;;;6.40;5.80;;;10.20;90.00;;;;;;5045630;28;20680;-65
2022/04/11 07:55:19;;;;;;;6.83;6.20;;;10.40;88.10;;;;;;5035053;28;20433;-66
2022/04/11 07:57:45;;;;;;;7.07;6.53;;;10.50;87.90;;;;;;5045570;28;20411;-65
2022/04/11 08:00:11;;;;;;;7.73;6.93;;;10.80;88.40;;;;;;5053140;28;20288;-65
2022/04/11 08:02:37;;;;;;;8.73;5.60;;;11.00;89.60;;;;;;5052021;28;20537;-66
2022/04/11 08:05:05;;;;;;;6.33;5.73;;;11.20;86.70;;;;;;5053186;28;20466;-65
2022/04/11 08:07:32;;;;;;;4.70;4.30;;;11.40;84.60;;;;;;5052296;28;20758;-65
2022/04/11 08:09:59;;;;;;;3.80;3.50;;;11.50;83.90;;;;;;5053098;28;20476;-65
2022/04/11 08:12:25;;;;;;;5.20;4.70;;;11.60;79.00;;;;;;5052875;28;20419;-65
2022/04/11 08:14:51;;;;;;;4.70;4.40;;;11.60;74.20;;;;;;5046632;28;20824;-65
2022/04/11 08:17:16;;;;;;;4.90;4.50;;;11.70;75.90;;;;;;5042830;28;20192;-66
2022/04/11 08:19:42;;;;;;;7.00;4.50;;;11.70;76.70;;;;;;5038292;28;20178;-65
2022/04/11 08:22:08;;;;;;;5.27;4.77;;;11.70;74.40;;;;;;5045226;28;20226;-65
2022/04/11 08:24:33;;;;;;;5.10;4.60;;;11.80;77.60;;;;;;5046468;28;20279;-65
2022/04/11 08:26:59;;;;;;;6.70;4.60;;;12.10;79.70;;;;;;5050887;28;20186;-65
2022/04/11 08:29:25;;;;;;;6.30;4.43;;;12.20;77.30;;;;;;5051046;28;20680;-72
2022/04/11 08:31:51;;;;;;;5.17;4.67;;;12.30;75.60;;;;;;5051798;28;20283;-66
2022/04/11 08:34:17;;;;;;;4.20;3.90;;;12.50;75.00;;;;;;5056602;28;20890;-66
2022/04/11 08:36:44;;;;;;;4.10;3.70;;;12.60;75.90;;;;;;5049791;28;20290;-66
2022/04/11 08:39:10;;;;;;;4.70;4.03;;;12.60;74.00;;;;;;5047609;28;20181;-65
2022/04/11 08:41:37;;;;;;;4.67;4.20;;;12.80;72.50;;;;;;5048349;28;20941;-66
2022/04/11 08:44:05;;;;;;;4.30;3.90;;;12.80;70.80;;;;;;5052730;28;20461;-65
2022/04/11 08:46:33;;;;;;;4.20;3.90;;;12.80;71.90;;;;;;5051957;28;20411;-66
2022/04/11 08:49:04;;;;;;;5.00;4.60;;;12.80;71.50;;;;;;5052743;28;20408;-65
2022/04/11 08:51:34;;;;;;;4.60;4.20;;;12.70;71.70;;;;;;5051784;28;20746;-66
2022/04/11 08:54:02;;;;;;;4.37;3.93;;;12.80;72.90;;;;;;5052634;28;20416;-66
2022/04/11 08:56:31;;;;;;;4.23;3.93;;;12.90;70.50;;;;;;5052099;28;20447;-66
2022/04/11 08:58:57;;;;;;;4.00;3.70;;;12.90;65.90;;;;;;5041803;28;20424;-66
2022/04/11 09:01:24;;;;;;;4.10;3.80;;;12.80;65.20;;;;;;5044942;28;20819;-66
2022/04/11 09:03:50;;;;;;;4.50;3.90;;;12.80;65.10;;;;;;5049196;28;20740;-66
2022/04/11 09:06:17;;;;;;;5.33;5.00;;;12.80;66.60;;;;;;5050362;28;20557;-65
2022/04/11 09:08:58;;;;;;;5.17;4.80;;;12.70;63.70;;;;;;5049967;28;20413;-66
2022/04/11 09:11:30;;;;;;;4.00;3.70;;;13.00;66.10;;;;;;5051888;28;20504;-65
2022/04/11 09:13:57;;;;;;;4.20;3.90;;;13.20;65.10;;;;;;5051430;28;20433;-65
2022/04/11 09:16:23;;;;;;;4.23;3.93;;;13.30;64.40;;;;;;5030763;28;20418;-65
2022/04/11 09:18:52;;;;;;;4.97;4.60;;;13.60;66.70;;;;;;5049347;28;21040;-66
2022/04/11 09:21:19;;;;;;;4.43;4.13;;;13.80;64.80;;;;;;5051754;28;20307;-65
2022/04/11 09:23:46;;;;;;;4.40;4.00;;;13.90;62.30;;;;;;5050786;28;21068;-66
2022/04/11 09:26:23;;;;;;;5.00;4.27;;;14.10;61.80;;;;;;5052351;28;20501;-65
2022/04/11 09:29:04;;;;;;;4.00;3.70;;;14.30;62.30;;;;;;5050475;28;20468;-65
2022/04/11 09:31:31;;;;;;;4.13;3.80;;;14.60;63.70;;;;;;5051842;28;20388;-66
2022/04/11 09:33:58;;;;;;;4.93;4.53;;;14.60;60.20;;;;;;5052358;28;20939;-66
2022/04/11 09:36:43;;;;;;;6.03;4.90;;;15.00;60.90;;;;;;5051954;28;20441;-65
2022/04/11 09:39:08;;;;;;;5.03;4.70;;;15.10;59.20;;;;;;5051696;28;20760;-67
2022/04/11 09:41:36;;;;;;;4.57;4.27;;;15.30;58.50;;;;;;5056496;28;20429;-66
2022/04/11 09:44:28;;;;;;;5.20;4.80;;;15.50;60.30;;;;;;5069827;28;20237;-66
2022/04/11 09:47:07;;;;;;;4.27;3.97;;;15.90;60.10;;;;;;5052322;28;20411;-66
2022/04/11 09:49:33;;;;;;;4.90;4.60;;;16.20;58.80;;;;;;5051778;28;20779;-66
2022/04/11 09:52:04;;;;;;;4.93;4.53;;;16.60;59.00;;;;;;5070033;28;20931;-65
2022/04/11 09:54:30;;;;;;;5.67;4.13;;;16.40;54.60;;;;;;5071311;28;20890;-66
2022/04/11 09:57:00;;;;;;;5.07;4.67;;;16.60;56.80;;;;;;5053057;28;20421;-65
2022/04/11 09:59:26;;;;;;;4.30;4.00;;;16.90;57.70;;;;;;5048180;28;20416;-66
2022/04/11 10:01:53;;;;;;;5.93;5.37;;;17.20;65.40;;;;;;5051248;28;20416;-65
2022/04/11 10:04:19;;;;;;;4.40;4.10;;;17.40;57.30;;;;;;5054535;28;20545;-65
2022/04/11 10:06:46;;;;;;;4.40;4.10;;;17.40;52.90;;;;;;5055163;28;20424;-65
2022/04/11 10:09:13;;;;;;;4.50;4.10;;;17.20;52.50;;;;;;5054713;28;20448;-65
2022/04/11 10:11:43;;;;;;;4.43;3.93;;;17.40;51.30;;;;;;5055326;28;20416;-65
2022/04/11 10:14:13;;;;;;;4.60;4.17;;;17.50;53.70;;;;;;5054855;28;20525;-66
2022/04/11 10:16:43;;;;;;;4.80;4.37;;;17.40;51.30;;;;;;5050981;28;20987;-66
2022/04/11 10:19:12;;;;;;;4.50;4.20;;;17.60;53.70;;;;;;5051503;28;20908;-66
2022/04/11 10:21:43;;;;;;;6.03;4.70;;;17.50;50.70;;;;;;5065411;28;20473;-66
2022/04/11 10:24:33;;;;;;;5.10;4.70;;;17.50;51.80;;;;;;5050299;28;20435;-65
2022/04/11 10:27:16;;;;;;;5.87;5.37;;;17.60;50.40;;;;;;5042832;28;20825;-66
2022/04/11 10:29:42;;;;;;;4.70;4.40;;;17.50;50.60;;;;;;5034945;28;20436;-65
2022/04/11 10:32:13;;;;;;;4.00;3.70;;;17.40;50.20;;;;;;5043729;28;20503;-66
2022/04/11 10:34:56;;;;;;;6.53;5.30;;;17.50;52.90;;;;;;5062502;28;20431;-65
2022/04/11 10:37:40;;;;;;;5.00;4.70;;;17.40;52.20;;;;;;5064969;28;20770;-66
2022/04/11 10:40:19;;;;;;;4.87;4.57;;;17.70;51.70;;;;;;5054807;28;20455;-66
2022/04/11 10:43:00;;;;;;;5.30;4.80;;;17.90;48.80;;;;;;5053979;28;20778;-66
2022/04/11 10:45:36;;;;;;;4.90;4.50;;;18.00;49.50;;;;;;5059895;28;20448;-66
2022/04/11 10:48:03;;;;;;;4.70;4.23;;;18.10;49.20;;;;;;5071372;28;20419;-66
2022/04/11 10:50:40;;;;;;;4.77;4.47;;;18.10;47.60;;;;;;5061974;28;20457;-66
2022/04/11 10:53:09;;;;;;;5.33;5.03;;;18.20;49.10;;;;;;5054972;28;20457;-66
2022/04/11 10:55:35;;;;;;;5.37;4.87;;;18.30;50.20;;;;;;5054122;28;20446;-66
2022/04/11 10:58:02;;;;;;;5.50;5.00;;;18.30;47.30;;;;;;5054054;28;20428;-66
2022/04/11 11:00:34;;;;;;;4.60;4.30;;;18.10;46.60;;;;;;5054869;28;20397;-66
2022/04/11 11:03:13;;;;;;;5.33;4.93;;;18.20;49.10;;;;;;5054777;28;20501;-66
2022/04/11 11:05:47;;;;;;;5.33;4.93;;;18.60;50.60;;;;;;5063244;28;20451;-66
2022/04/11 11:08:13;;;;;;;5.30;4.90;;;18.80;47.90;;;;;;5074830;28;20402;-66
2022/04/11 11:11:00;;;;;;;5.20;4.70;;;19.00;49.40;;;;;;5073990;28;20419;-66
2022/04/11 11:13:35;;;;;;;5.63;5.23;;;19.20;48.00;;;;;;5074387;28;20522;-66
2022/04/11 11:16:07;;;;;;;5.63;5.23;;;19.30;48.00;;;;;;5072160;28;20948;-66
2022/04/11 11:18:48;;;;;;;5.00;4.60;;;19.60;49.20;;;;;;5053357;28;20420;-66
2022/04/11 11:21:32;;;;;;;5.17;4.80;;;19.50;45.70;;;;;;5054059;28;20451;-66
2022/04/11 11:24:04;;;;;;;4.30;4.10;;;19.60;47.00;;;;;;5051595;28;20427;-66
2022/04/11 11:26:40;;;;;;;5.07;4.77;;;19.70;47.90;;;;;;5056466;28;20519;-66
2022/04/11 11:29:22;;;;;;;5.70;5.37;;;19.80;47.70;;;;;;5055390;28;20424;-65
2022/04/11 11:31:51;;;;;;;5.93;5.43;;;19.90;46.10;;;;;;5053382;28;20412;-65
2022/04/11 11:34:19;;;;;;;4.90;4.50;;;19.90;46.10;;;;;;5052616;28;20420;-66
2022/04/11 11:36:46;;;;;;;5.20;4.90;;;19.70;44.70;;;;;;5053394;28;20416;-66
2022/04/11 11:39:19;;;;;;;6.10;5.70;;;19.50;44.90;;;;;;5053774;28;20416;-65
2022/04/11 11:41:56;;;;;;;4.67;4.27;;;19.40;43.20;;;;;;5053219;28;20443;-66
2022/04/11 11:44:22;;;;;;;5.10;4.70;;;19.30;45.20;;;;;;5053542;28;20456;-66
2022/04/11 11:46:48;;;;;;;5.00;4.60;;;19.50;45.80;;;;;;5053066;28;20416;-66
2022/04/11 11:49:14;;;;;;;5.20;4.80;;;19.30;43.30;;;;;;5052373;28;20485;-66
2022/04/11 11:51:40;;;;;;;5.40;5.00;;;19.40;46.40;;;;;;5053089;28;20416;-66
2022/04/11 11:54:06;;;;;;;5.50;4.90;;;19.30;44.00;;;;;;5053634;28;20199;-65
2022/04/11 11:56:46;;;;;;;5.57;5.00;;;19.40;43.60;;;;;;5053749;28;20181;-66
2022/04/11 11:59:13;;;;;;;5.63;5.17;;;19.40;43.00;;;;;;5053339;28;20435;-65
2022/04/11 12:01:39;;;;;;;5.30;4.80;;;19.40;44.20;;;;;;5051763;28;20418;-65
2022/04/11 12:04:18;;;;;;;5.93;5.43;;;19.10;42.40;;;;;;5052949;28;20754;-65
2022/04/11 12:06:45;;;;;;;5.50;5.13;;;18.90;42.90;;;;;;5052918;28;20416;-67
2022/04/11 12:09:11;;;;;;;5.40;4.90;;;18.70;44.30;;;;;;5051985;28;20413;-67
2022/04/11 12:11:37;;;;;;;5.43;5.03;;;18.80;46.20;;;;;;5053395;28;20741;-68
2022/04/11 12:14:06;;;;;;;5.63;5.23;;;18.80;45.30;;;;;;5053259;28;20421;-67
2022/04/11 12:16:35;;;;;;;5.17;4.87;;;18.80;43.40;;;;;;5052148;28;20199;-67
2022/04/11 12:19:03;;;;;;;5.27;4.97;;;19.00;48.30;;;;;;5057007;28;20477;-68
2022/04/11 12:21:32;;;;;;;4.30;4.00;;;19.20;45.30;;;;;;5053443;28;20448;-67
2022/04/11 12:23:58;;;;;;;7.93;5.07;;;19.20;41.20;;;;;;5052211;28;20454;-67
2022/04/11 12:26:27;;;;;;;4.53;4.30;;;19.20;43.20;;;;;;5052529;28;20464;-67
2022/04/11 12:28:54;;;;;;;5.40;4.40;;;19.20;42.70;;;;;;5052165;28;20408;-68
2022/04/11 12:31:21;;;;;;;4.27;3.97;;;19.10;42.30;;;;;;5052501;28;20797;-68
2022/04/11 12:33:49;;;;;;;5.00;4.70;;;18.90;41.10;;;;;;5052322;28;20466;-68
2022/04/11 12:36:20;;;;;;;4.10;3.90;;;18.70;41.50;;;;;;5052918;28;20408;-67
2022/04/11 12:38:50;;;;;;;5.53;5.03;;;18.50;40.80;;;;;;5051630;28;20892;-65
2022/04/11 12:41:41;;;;;;;5.10;4.70;;;18.50;44.00;;;;;;5058853;28;20481;-65
2022/04/11 12:44:28;;;;;;;4.73;4.10;;;18.70;44.30;;;;;;5052923;28;20423;-65
2022/04/11 12:46:56;;;;;;;5.27;4.60;;;18.80;43.40;;;;;;5061132;28;20403;-67
2022/04/11 12:49:23;;;;;;;4.60;4.30;;;18.90;43.80;;;;;;5055573;28;20943;-65
2022/04/11 12:52:04;;;;;;;4.70;4.50;;;19.00;42.70;;;;;;5052251;28;20400;-66